Time;durP1;ratioP1;P1;durP2;ratioP2;P2;SDS_P1;SDS_P2;PMS_P1;PMS_P2;Temp;Humidity;BMP_temperature;BMP_pressure;BME280_temperature;BME280_humidity;BME280_pressure;Samples;Min_cycle;Max_cycle;Signal;HPM_P1;HPM_P2
2023/07/19 00:01:54;;;;;;;8.95;1.70;;;17.80;99.90;;;;;;5048889;28;20091;-46
2023/07/19 00:04:19;;;;;;;4.40;1.95;;;17.80;99.90;;;;;;5035971;28;20072;-45
2023/07/19 00:06:45;;;;;;;7.80;2.10;;;17.80;99.90;;;;;;5041893;28;20037;-47
2023/07/19 00:09:11;;;;;;;5.28;1.45;;;17.80;99.90;;;;;;5050369;28;20044;-47
2023/07/19 00:11:36;;;;;;;4.55;1.83;;;17.80;99.90;;;;;;5051431;28;20076;-47
2023/07/19 00:14:05;;;;;;;7.38;2.40;;;17.70;99.90;;;;;;5050658;28;20506;-45
2023/07/19 00:16:32;;;;;;;5.28;1.98;;;17.70;99.90;;;;;;5050111;28;20044;-45
2023/07/19 00:18:57;;;;;;;6.35;1.75;;;17.60;99.90;;;;;;5050759;28;20118;-46
2023/07/19 00:21:23;;;;;;;4.43;1.98;;;17.60;99.90;;;;;;5050973;28;20037;-48
2023/07/19 00:23:49;;;;;;;4.50;1.95;;;17.60;99.90;;;;;;5042108;28;20078;-46
2023/07/19 00:26:14;;;;;;;6.20;1.67;;;17.60;99.90;;;;;;5040016;28;20087;-47
2023/07/19 00:28:40;;;;;;;4.40;2.03;;;17.60;99.90;;;;;;5050919;28;20113;-44
2023/07/19 00:31:06;;;;;;;2.83;1.60;;;17.60;99.90;;;;;;5050815;28;20067;-46
2023/07/19 00:33:31;;;;;;;3.40;1.52;;;17.60;99.90;;;;;;5045830;28;20483;-46
2023/07/19 00:35:57;;;;;;;5.38;2.10;;;17.50;99.90;;;;;;5050596;28;20043;-46
2023/07/19 00:38:22;;;;;;;4.28;2.08;;;17.50;99.90;;;;;;5050831;28;20041;-45
2023/07/19 00:40:49;;;;;;;4.22;2.08;;;17.50;99.90;;;;;;5050664;28;20040;-45
2023/07/19 00:43:14;;;;;;;5.22;2.28;;;17.50;99.90;;;;;;5050510;28;20045;-47
2023/07/19 00:45:53;;;;;;;4.68;1.95;;;17.40;99.90;;;;;;5049596;28;20041;-49
2023/07/19 00:48:20;;;;;;;3.30;2.38;;;17.50;99.90;;;;;;5050581;28;20044;-47
2023/07/19 00:50:48;;;;;;;5.53;2.30;;;17.50;99.90;;;;;;5050514;28;20048;-47
2023/07/19 00:53:14;;;;;;;2.90;1.15;;;17.50;99.90;;;;;;5050291;28;20415;-46
2023/07/19 00:55:40;;;;;;;3.15;1.45;;;17.50;99.90;;;;;;5049951;28;20041;-47
2023/07/19 00:58:06;;;;;;;12.77;2.25;;;17.40;99.90;;;;;;5049976;28;20094;-45
2023/07/19 01:00:32;;;;;;;5.35;2.00;;;17.40;99.90;;;;;;5049878;28;20040;-46
2023/07/19 01:02:59;;;;;;;4.90;2.13;;;17.30;99.90;;;;;;5050370;28;20620;-47
2023/07/19 01:05:25;;;;;;;3.85;1.95;;;17.30;99.90;;;;;;5049981;28;20037;-46
2023/07/19 01:07:52;;;;;;;5.78;2.05;;;17.20;99.90;;;;;;5050004;28;20041;-45
2023/07/19 01:10:18;;;;;;;3.85;2.15;;;17.20;99.90;;;;;;5050132;28;20040;-46
2023/07/19 01:12:43;;;;;;;2.80;2.13;;;17.10;99.90;;;;;;5049594;28;20037;-46
2023/07/19 01:15:09;;;;;;;10.50;2.55;;;17.10;99.90;;;;;;5049510;28;20136;-45
2023/07/19 01:17:36;;;;;;;5.10;2.70;;;17.10;99.90;;;;;;5048987;28;20043;-45
2023/07/19 01:20:02;;;;;;;6.20;3.58;;;17.00;99.90;;;;;;5049939;28;20033;-46
2023/07/19 01:22:36;;;;;;;5.72;2.60;;;17.00;99.90;;;;;;5049635;28;20482;-47
2023/07/19 01:25:02;;;;;;;6.57;2.97;;;17.00;99.90;;;;;;5045489;28;20033;-46
2023/07/19 01:27:28;;;;;;;4.40;2.88;;;17.10;99.90;;;;;;5049012;28;20036;-46
2023/07/19 01:29:53;;;;;;;4.55;2.90;;;17.10;99.90;;;;;;5049536;28;20108;-46
2023/07/19 01:32:19;;;;;;;4.30;3.08;;;17.10;99.90;;;;;;5049842;28;20075;-45
2023/07/19 01:34:45;;;;;;;4.55;3.17;;;17.20;99.90;;;;;;5049513;28;20534;-47
2023/07/19 01:37:11;;;;;;;7.80;3.28;;;17.20;99.90;;;;;;5049799;28;20072;-46
2023/07/19 01:39:36;;;;;;;5.07;2.90;;;17.20;99.90;;;;;;5049633;28;20051;-47
2023/07/19 01:42:02;;;;;;;10.10;3.10;;;17.20;99.90;;;;;;5049402;28;20033;-46
2023/07/19 01:44:27;;;;;;;4.35;2.83;;;17.30;99.90;;;;;;5049432;28;20056;-47
2023/07/19 01:46:53;;;;;;;5.10;3.40;;;17.20;99.90;;;;;;5049586;28;20041;-47
2023/07/19 01:49:19;;;;;;;4.78;2.92;;;17.30;99.90;;;;;;5049752;28;20043;-47
2023/07/19 01:51:44;;;;;;;3.55;2.70;;;17.30;99.90;;;;;;5048120;28;20112;-47
2023/07/19 01:54:10;;;;;;;5.72;3.30;;;17.30;99.90;;;;;;5049457;28;20048;-47
2023/07/19 01:56:36;;;;;;;8.27;3.40;;;17.30;99.90;;;;;;5048808;28;20076;-45
2023/07/19 01:59:01;;;;;;;6.25;3.72;;;17.30;99.90;;;;;;5049630;28;20444;-47
2023/07/19 02:01:27;;;;;;;4.82;2.97;;;17.30;99.90;;;;;;5044528;28;20082;-47
2023/07/19 02:03:53;;;;;;;9.88;3.88;;;17.20;99.90;;;;;;5049240;28;20052;-47
2023/07/19 02:06:18;;;;;;;8.45;3.33;;;17.30;99.90;;;;;;5049162;28;20041;-45
2023/07/19 02:08:47;;;;;;;5.97;2.92;;;17.30;99.90;;;;;;5049373;28;20501;-47
2023/07/19 02:11:12;;;;;;;4.05;2.72;;;17.30;99.90;;;;;;5049140;28;20037;-45
2023/07/19 02:13:38;;;;;;;6.57;3.00;;;17.30;99.90;;;;;;5037785;28;20056;-47
2023/07/19 02:16:04;;;;;;;4.57;3.00;;;17.30;99.90;;;;;;5043060;28;20047;-45
2023/07/19 02:18:29;;;;;;;7.85;3.25;;;17.30;99.90;;;;;;5049626;28;20282;-45
2023/07/19 02:20:55;;;;;;;5.22;3.22;;;17.30;99.90;;;;;;5049513;28;20091;-45
2023/07/19 02:23:21;;;;;;;6.40;3.60;;;17.20;99.90;;;;;;5049281;28;20029;-46
2023/07/19 02:25:50;;;;;;;6.28;3.58;;;17.20;99.90;;;;;;5048454;28;20045;-46
2023/07/19 02:28:17;;;;;;;7.22;3.53;;;17.20;99.90;;;;;;5049443;28;20528;-47
2023/07/19 02:30:44;;;;;;;7.95;3.40;;;17.20;99.90;;;;;;5049974;28;20117;-45
2023/07/19 02:33:13;;;;;;;8.88;4.05;;;17.20;99.90;;;;;;5051740;28;20562;-45
2023/07/19 02:35:39;;;;;;;5.47;3.95;;;17.10;99.90;;;;;;5052225;28;20077;-45
2023/07/19 02:38:05;;;;;;;4.20;3.30;;;17.20;99.90;;;;;;5044180;28;20072;-47
2023/07/19 02:40:30;;;;;;;8.10;3.15;;;17.10;99.90;;;;;;5047064;28;20029;-47
2023/07/19 02:42:56;;;;;;;6.43;4.18;;;17.10;99.90;;;;;;5044531;28;20128;-47
2023/07/19 02:45:23;;;;;;;7.55;4.40;;;17.10;99.90;;;;;;5052550;28;20041;-45
2023/07/19 02:47:49;;;;;;;4.72;4.18;;;17.10;99.90;;;;;;5052668;28;20041;-47
2023/07/19 02:50:14;;;;;;;7.05;4.25;;;17.00;99.90;;;;;;5052697;28;20033;-46
2023/07/19 02:52:40;;;;;;;9.02;4.53;;;17.00;99.90;;;;;;5052678;28;20505;-47
2023/07/19 02:55:06;;;;;;;5.18;4.30;;;17.00;99.90;;;;;;5052021;28;20036;-45
2023/07/19 02:57:31;;;;;;;5.95;4.18;;;17.00;99.90;;;;;;5052647;28;20063;-45
2023/07/19 02:59:57;;;;;;;6.72;4.38;;;17.00;99.90;;;;;;5052678;28;20041;-45
2023/07/19 03:02:23;;;;;;;8.63;3.95;;;17.00;99.90;;;;;;5052473;28;20037;-47
2023/07/19 03:04:49;;;;;;;5.40;3.75;;;17.00;99.90;;;;;;5047429;28;20039;-46
2023/07/19 03:07:14;;;;;;;7.65;4.90;;;17.00;99.90;;;;;;5052105;28;20048;-45
2023/07/19 03:09:40;;;;;;;4.57;3.88;;;16.90;99.90;;;;;;5052257;28;20048;-47
2023/07/19 03:12:06;;;;;;;7.75;4.40;;;16.90;99.90;;;;;;5052600;28;20619;-45
2023/07/19 03:14:32;;;;;;;6.90;4.07;;;16.90;99.90;;;;;;5052322;28;20037;-46
2023/07/19 03:16:57;;;;;;;8.77;4.30;;;16.90;99.90;;;;;;5052335;28;20528;-45
2023/07/19 03:19:23;;;;;;;7.13;4.40;;;16.90;99.90;;;;;;5051963;28;20040;-45
2023/07/19 03:21:48;;;;;;;7.70;4.53;;;16.90;99.90;;;;;;5051932;28;20457;-47
2023/07/19 03:24:14;;;;;;;6.85;4.97;;;16.80;99.90;;;;;;5051651;28;20494;-45
2023/07/19 03:26:39;;;;;;;6.80;4.88;;;16.80;99.90;;;;;;5051654;28;20037;-45
2023/07/19 03:29:05;;;;;;;5.95;5.38;;;16.80;99.90;;;;;;5052007;28;20040;-45
2023/07/19 03:31:31;;;;;;;6.28;5.05;;;16.80;99.90;;;;;;5052037;28;20040;-45
2023/07/19 03:33:57;;;;;;;7.65;5.53;;;16.80;99.90;;;;;;5051637;28;20036;-46
2023/07/19 03:36:23;;;;;;;7.30;5.13;;;16.80;99.90;;;;;;5051455;28;20043;-45
2023/07/19 03:38:49;;;;;;;9.27;5.78;;;16.90;99.90;;;;;;5051031;28;20116;-47
2023/07/19 03:41:14;;;;;;;6.28;4.30;;;16.90;99.90;;;;;;5051456;28;20115;-46
2023/07/19 03:43:40;;;;;;;7.25;5.50;;;16.90;99.90;;;;;;5051305;28;20037;-45
2023/07/19 03:46:06;;;;;;;6.68;5.13;;;16.80;99.90;;;;;;5051337;28;20047;-46
2023/07/19 03:48:32;;;;;;;16.05;7.13;;;16.80;99.90;;;;;;5050840;28;20051;-45
2023/07/19 03:51:01;;;;;;;6.90;6.15;;;16.90;99.90;;;;;;5051666;28;20522;-47
2023/07/19 03:53:28;;;;;;;7.75;6.97;;;16.80;99.90;;;;;;5050988;28;20037;-46
2023/07/19 03:55:58;;;;;;;9.48;6.57;;;16.80;99.90;;;;;;5050998;28;20661;-46
2023/07/19 03:58:25;;;;;;;7.97;6.70;;;16.80;99.90;;;;;;5051697;28;20048;-45
2023/07/19 04:00:55;;;;;;;7.88;7.22;;;16.80;99.90;;;;;;5051381;28;20041;-45
2023/07/19 04:03:22;;;;;;;11.35;7.07;;;16.80;99.90;;;;;;5051281;28;20072;-45
2023/07/19 04:05:47;;;;;;;8.35;5.95;;;16.70;99.90;;;;;;5045585;28;20045;-45
2023/07/19 04:08:14;;;;;;;16.27;8.13;;;16.70;99.90;;;;;;5051637;28;20037;-45
2023/07/19 04:10:40;;;;;;;14.68;7.47;;;16.70;99.90;;;;;;5051224;28;20171;-45
2023/07/19 04:13:06;;;;;;;;;;;16.70;99.90;;;;;;5047478;28;20040;-46
2023/07/19 04:15:32;;;;;;;11.20;7.40;;;16.70;99.90;;;;;;5034781;28;19924;-47
2023/07/19 04:17:58;;;;;;;10.90;7.35;;;16.70;99.90;;;;;;5046063;28;20108;-47
2023/07/19 04:20:25;;;;;;;8.95;7.93;;;16.70;99.90;;;;;;5042402;28;20037;-47
2023/07/19 04:22:51;;;;;;;10.48;7.82;;;16.70;99.90;;;;;;5050972;28;20053;-45
2023/07/19 04:25:17;;;;;;;14.25;8.20;;;16.70;99.90;;;;;;5050659;28;20049;-46
2023/07/19 04:27:43;;;;;;;8.55;7.65;;;16.60;99.90;;;;;;5050738;28;20049;-46
2023/07/19 04:30:09;;;;;;;13.43;8.15;;;16.60;99.90;;;;;;5050860;28;20043;-47
2023/07/19 04:32:34;;;;;;;8.90;7.95;;;16.60;99.90;;;;;;5050554;28;20075;-46
2023/07/19 04:35:00;;;;;;;14.95;8.02;;;16.50;99.90;;;;;;5050020;28;20063;-45
2023/07/19 04:37:25;;;;;;;11.82;8.65;;;16.60;99.90;;;;;;5050786;28;20087;-46
2023/07/19 04:39:51;;;;;;;9.95;7.30;;;16.50;99.90;;;;;;5050603;28;20116;-47
2023/07/19 04:42:18;;;;;;;9.70;8.55;;;16.60;99.90;;;;;;5050452;28;20083;-45
2023/07/19 04:44:44;;;;;;;11.35;8.50;;;16.60;99.90;;;;;;5050312;28;20053;-45
2023/07/19 04:47:10;;;;;;;11.90;8.57;;;16.60;99.90;;;;;;5050370;28;20220;-47
2023/07/19 04:49:36;;;;;;;;;;;16.50;99.90;;;;;;5050261;28;20041;-46
2023/07/19 04:52:01;;;;;;;14.93;9.18;;;16.50;99.90;;;;;;5050263;28;19920;-46
2023/07/19 04:54:27;;;;;;;11.18;8.65;;;16.60;99.90;;;;;;5049475;28;20033;-45
2023/07/19 04:56:53;;;;;;;14.18;10.13;;;16.60;99.90;;;;;;5050516;28;20037;-47
2023/07/19 04:59:19;;;;;;;;;;;16.60;99.90;;;;;;5050755;28;20049;-45
2023/07/19 05:01:44;;;;;;;9.75;8.02;;;16.60;99.90;;;;;;5050613;28;20046;-47
2023/07/19 05:04:10;;;;;;;11.93;9.35;;;16.70;99.90;;;;;;5050170;28;20129;-45
2023/07/19 05:06:35;;;;;;;11.93;8.60;;;16.70;99.90;;;;;;5045009;28;20041;-45
2023/07/19 05:09:03;;;;;;;9.30;8.35;;;16.70;99.90;;;;;;5050490;28;20029;-47
2023/07/19 05:11:29;;;;;;;12.73;8.65;;;16.70;99.90;;;;;;5050138;28;20041;-47
2023/07/19 05:13:55;;;;;;;12.13;9.05;;;16.70;99.90;;;;;;5048888;28;20058;-45
2023/07/19 05:16:21;;;;;;;10.65;9.52;;;16.70;99.90;;;;;;5049781;28;20044;-46
2023/07/19 05:18:47;;;;;;;8.90;7.93;;;16.70;99.90;;;;;;5049309;28;20045;-46
2023/07/19 05:21:13;;;;;;;16.25;9.60;;;16.70;99.90;;;;;;5050333;28;20102;-47
2023/07/19 05:23:39;;;;;;;9.50;8.52;;;16.70;99.90;;;;;;5049888;28;20119;-45
2023/07/19 05:26:05;;;;;;;;;;;16.70;99.90;;;;;;5050060;28;20194;-45
2023/07/19 05:28:30;;;;;;;12.75;8.40;;;16.60;99.90;;;;;;5049784;28;19946;-47
2023/07/19 05:31:04;;;;;;;12.50;9.10;;;16.60;99.90;;;;;;5050144;28;20043;-45
2023/07/19 05:33:32;;;;;;;11.77;8.90;;;16.70;99.90;;;;;;5049916;28;20064;-45
2023/07/19 05:35:57;;;;;;;12.32;8.30;;;16.70;99.90;;;;;;5048444;28;20068;-45
2023/07/19 05:38:23;;;;;;;9.80;7.75;;;16.70;99.90;;;;;;5049795;28;20039;-47
2023/07/19 05:40:49;;;;;;;14.60;8.52;;;16.70;99.90;;;;;;5049710;28;20056;-45
2023/07/19 05:43:15;;;;;;;8.85;7.95;;;16.70;99.90;;;;;;5049662;28;20452;-45
2023/07/19 05:45:40;;;;;;;13.05;7.53;;;16.80;99.90;;;;;;5038440;28;20515;-45
2023/07/19 05:48:06;;;;;;;8.35;6.82;;;16.80;99.90;;;;;;5046528;28;20037;-45
2023/07/19 05:50:32;;;;;;;11.30;6.63;;;16.80;99.90;;;;;;5049848;28;20090;-46
2023/07/19 05:52:57;;;;;;;7.72;6.43;;;16.80;99.90;;;;;;5049618;28;20032;-45
2023/07/19 05:55:24;;;;;;;8.43;6.43;;;16.90;99.90;;;;;;5049425;28;20457;-46
2023/07/19 05:57:49;;;;;;;;;;;16.90;99.90;;;;;;5049554;28;20048;-47
2023/07/19 06:00:24;;;;;;;6.70;5.60;;;17.00;99.90;;;;;;5037327;28;19978;-47
2023/07/19 06:02:53;;;;;;;10.98;6.95;;;17.10;99.90;;;;;;5045322;28;20046;-48
2023/07/19 06:05:19;;;;;;;7.28;6.15;;;17.10;99.90;;;;;;5052469;28;20041;-45
2023/07/19 06:07:46;;;;;;;4.78;3.63;;;17.20;99.90;;;;;;5053925;28;20041;-45
2023/07/19 06:10:12;;;;;;;3.80;3.47;;;17.20;99.90;;;;;;5047209;28;20386;-46
2023/07/19 06:12:38;;;;;;;;;;;17.20;99.90;;;;;;5050402;28;20033;-45
2023/07/19 06:15:04;;;;;;;5.28;3.60;;;17.20;99.90;;;;;;5052612;28;20432;-45
2023/07/19 06:17:29;;;;;;;5.55;3.55;;;17.20;99.90;;;;;;5045499;28;20041;-46
2023/07/19 06:19:55;;;;;;;4.07;3.47;;;17.20;99.90;;;;;;5051782;28;20041;-47
2023/07/19 06:22:20;;;;;;;5.78;3.50;;;17.20;99.90;;;;;;5053336;28;20040;-46
2023/07/19 06:24:46;;;;;;;5.80;4.25;;;17.30;99.90;;;;;;5052990;28;20508;-45
2023/07/19 06:27:11;;;;;;;5.72;3.42;;;17.20;99.90;;;;;;5053053;28;20115;-46
2023/07/19 06:29:38;;;;;;;6.65;3.47;;;17.30;99.90;;;;;;5052806;28;20041;-47
2023/07/19 06:32:04;;;;;;;6.35;3.00;;;17.30;99.90;;;;;;5053483;28;20051;-46
2023/07/19 06:34:30;;;;;;;4.32;2.35;;;17.40;99.90;;;;;;5051587;28;20405;-45
2023/07/19 06:36:55;;;;;;;5.25;2.80;;;17.40;99.90;;;;;;5053124;28;20036;-45
2023/07/19 06:39:21;;;;;;;4.13;2.63;;;17.40;99.90;;;;;;5053085;28;20118;-47
2023/07/19 06:41:46;;;;;;;6.13;2.85;;;17.40;99.90;;;;;;5053539;28;20033;-45
2023/07/19 06:44:12;;;;;;;3.60;2.72;;;17.40;99.90;;;;;;5045630;28;20049;-46
2023/07/19 06:46:38;;;;;;;3.80;2.30;;;17.40;99.90;;;;;;5052829;28;20072;-45
2023/07/19 06:49:04;;;;;;;3.63;2.55;;;17.50;99.90;;;;;;5053258;28;20040;-46
2023/07/19 06:51:29;;;;;;;6.03;2.47;;;17.50;99.90;;;;;;5053093;28;20037;-45
2023/07/19 06:53:55;;;;;;;9.45;2.60;;;17.60;99.90;;;;;;5049616;28;20036;-45
2023/07/19 06:56:21;;;;;;;8.10;3.03;;;17.60;99.90;;;;;;5049355;28;20115;-45
2023/07/19 06:58:46;;;;;;;6.97;2.30;;;17.60;99.90;;;;;;5044858;28;20041;-46
2023/07/19 07:01:12;;;;;;;4.65;2.13;;;17.60;99.90;;;;;;5042172;28;20037;-46
2023/07/19 07:03:38;;;;;;;2.80;2.10;;;17.60;99.90;;;;;;5038880;28;20390;-45
2023/07/19 07:06:03;;;;;;;3.53;2.20;;;17.70;99.90;;;;;;5042087;28;20560;-48
2023/07/19 07:08:29;;;;;;;4.30;2.70;;;17.70;99.90;;;;;;5041370;28;20029;-50
2023/07/19 07:10:54;;;;;;;3.40;2.30;;;17.80;99.90;;;;;;5042920;28;20739;-47
2023/07/19 07:13:20;;;;;;;3.75;2.40;;;17.80;99.90;;;;;;5051124;28;20052;-47
2023/07/19 07:15:46;;;;;;;4.68;2.85;;;17.90;99.90;;;;;;5046028;28;20049;-46
2023/07/19 07:18:12;;;;;;;4.35;1.92;;;17.90;99.90;;;;;;5049062;28;20049;-46
2023/07/19 07:20:37;;;;;;;7.40;2.25;;;18.00;99.90;;;;;;5049223;28;20043;-47
2023/07/19 07:23:03;;;;;;;2.45;1.73;;;18.00;99.90;;;;;;5047904;28;20083;-46
2023/07/19 07:25:35;;;;;;;3.25;2.53;;;18.10;99.90;;;;;;5042638;28;20116;-45
2023/07/19 07:28:00;;;;;;;5.20;2.28;;;18.10;99.90;;;;;;5044188;28;20041;-47
2023/07/19 07:30:26;;;;;;;2.83;1.80;;;18.20;99.90;;;;;;5043415;28;20048;-47
2023/07/19 07:32:52;;;;;;;3.17;1.83;;;18.30;99.90;;;;;;5051571;28;20504;-45
2023/07/19 07:35:18;;;;;;;7.90;2.10;;;18.30;99.90;;;;;;5051650;28;20049;-45
2023/07/19 07:37:43;;;;;;;3.15;1.60;;;18.50;99.90;;;;;;5049104;28;20046;-47
2023/07/19 07:40:11;;;;;;;3.22;1.70;;;18.50;99.90;;;;;;5051634;28;20083;-46
2023/07/19 07:42:38;;;;;;;6.70;1.35;;;18.70;99.90;;;;;;5051974;28;20132;-45
2023/07/19 07:45:05;;;;;;;3.42;1.08;;;18.80;99.90;;;;;;5037933;28;20053;-45
2023/07/19 07:47:31;;;;;;;4.97;1.20;;;18.90;99.90;;;;;;5051776;28;20037;-47
2023/07/19 07:49:57;;;;;;;4.22;0.80;;;19.00;99.90;;;;;;5051768;28;20398;-46
2023/07/19 07:52:23;;;;;;;2.58;0.93;;;19.00;99.90;;;;;;5050412;28;20047;-45
2023/07/19 07:54:51;;;;;;;2.88;1.02;;;19.10;99.90;;;;;;5051567;28;20041;-46
2023/07/19 07:57:17;;;;;;;4.65;1.45;;;19.20;99.90;;;;;;5051873;28;20048;-45
2023/07/19 07:59:45;;;;;;;7.07;1.20;;;19.30;99.90;;;;;;5051751;28;20513;-47
2023/07/19 08:02:11;;;;;;;5.50;0.68;;;19.40;99.90;;;;;;5052044;28;20123;-45
2023/07/19 08:04:36;;;;;;;3.20;0.80;;;19.40;99.90;;;;;;5051531;28;20124;-45
2023/07/19 08:07:02;;;;;;;3.95;1.40;;;19.30;99.90;;;;;;5051482;28;20379;-46
2023/07/19 08:09:28;;;;;;;3.42;1.10;;;19.40;99.90;;;;;;5050938;28;20029;-45
2023/07/19 08:11:53;;;;;;;;;;;19.40;99.90;;;;;;5051969;28;20087;-46
2023/07/19 08:14:22;;;;;;;2.80;1.05;;;19.40;99.90;;;;;;5051536;28;20340;-47
2023/07/19 08:16:50;;;;;;;2.38;0.60;;;19.40;99.90;;;;;;5044063;28;20041;-47
2023/07/19 08:19:16;;;;;;;3.08;0.45;;;19.50;99.90;;;;;;5043149;28;20041;-46
2023/07/19 08:21:41;;;;;;;5.22;0.30;;;19.50;99.90;;;;;;5048096;28;20044;-45
2023/07/19 08:24:07;;;;;;;;;;;19.50;99.90;;;;;;5050676;28;20120;-46
2023/07/19 08:26:32;;;;;;;2.80;0.60;;;19.60;99.90;;;;;;5048330;28;19935;-48
2023/07/19 08:28:58;;;;;;;;;;;19.70;99.90;;;;;;5039799;28;20048;-46
2023/07/19 08:31:23;;;;;;;2.15;0.50;;;19.80;99.90;;;;;;5040219;28;19960;-46
2023/07/19 08:33:49;;;;;;;;;;;19.80;99.90;;;;;;5042524;28;20432;-46
2023/07/19 08:36:14;;;;;;;1.95;0.30;;;19.80;99.90;;;;;;5044004;28;19970;-47
2023/07/19 08:38:40;;;;;;;2.58;0.30;;;19.80;99.90;;;;;;5041478;28;20071;-45
2023/07/19 08:41:06;;;;;;;;;;;19.80;99.90;;;;;;5036879;28;20041;-47
2023/07/19 08:43:35;;;;;;;3.00;0.40;;;19.90;99.90;;;;;;5042678;28;19917;-45
2023/07/19 08:46:02;;;;;;;2.40;0.30;;;20.00;99.90;;;;;;5041516;28;20505;-48
2023/07/19 08:48:28;;;;;;;1.13;0.30;;;20.00;99.90;;;;;;5042196;28;20068;-46
2023/07/19 08:50:58;;;;;;;2.88;0.50;;;20.10;99.90;;;;;;5040451;28;20064;-47
2023/07/19 08:53:24;;;;;;;1.30;0.38;;;20.20;99.90;;;;;;5036997;28;20036;-45
2023/07/19 08:55:51;;;;;;;4.35;0.40;;;20.30;99.90;;;;;;5044640;28;20394;-46
2023/07/19 08:58:17;;;;;;;3.60;0.30;;;20.40;99.90;;;;;;5044989;28;20072;-48
2023/07/19 09:00:48;;;;;;;2.35;0.30;;;20.50;99.90;;;;;;5037413;28;20548;-45
2023/07/19 09:03:15;;;;;;;1.48;0.40;;;20.50;99.90;;;;;;5042688;28;20402;-46
2023/07/19 09:05:40;;;;;;;1.08;0.30;;;20.50;99.90;;;;;;5038603;28;20076;-47
2023/07/19 09:08:09;;;;;;;;;;;20.50;99.90;;;;;;5037497;28;20096;-45
2023/07/19 09:10:35;;;;;;;3.45;0.40;;;20.40;99.90;;;;;;5034510;28;20305;-46
2023/07/19 09:13:02;;;;;;;;;;;20.50;99.90;;;;;;5041296;28;20037;-47
2023/07/19 09:15:28;;;;;;;2.63;0.50;;;20.60;99.90;;;;;;5043115;28;19917;-47
2023/07/19 09:17:54;;;;;;;;;;;20.70;99.90;;;;;;5044908;28;20040;-48
2023/07/19 09:20:20;;;;;;;2.00;0.30;;;20.80;99.90;;;;;;5035134;28;20267;-51
2023/07/19 09:22:45;;;;;;;;;;;20.90;99.90;;;;;;5036864;28;20033;-52
2023/07/19 09:25:12;;;;;;;1.77;0.52;;;21.00;99.90;;;;;;5041240;28;19963;-52
2023/07/19 09:27:42;;;;;;;2.40;0.57;;;21.10;99.90;;;;;;5044004;28;20038;-46
2023/07/19 09:30:11;;;;;;;3.08;0.50;;;21.10;99.90;;;;;;5035550;28;20076;-49
2023/07/19 09:32:38;;;;;;;4.20;0.60;;;21.10;99.90;;;;;;5037677;28;20045;-47
2023/07/19 09:35:05;;;;;;;3.78;0.77;;;21.10;99.90;;;;;;5037708;28;20466;-47
2023/07/19 09:37:31;;;;;;;2.58;0.40;;;21.00;99.90;;;;;;5037028;28;20136;-51
2023/07/19 09:39:59;;;;;;;3.10;0.50;;;21.00;99.90;;;;;;5038122;28;20321;-49
2023/07/19 09:42:25;;;;;;;3.00;0.80;;;21.00;99.90;;;;;;5041427;28;20057;-48
2023/07/19 09:44:52;;;;;;;;;;;21.10;99.90;;;;;;5043049;28;20064;-49
2023/07/19 09:47:18;;;;;;;4.35;0.60;;;21.20;99.90;;;;;;5045535;28;19924;-48
2023/07/19 09:49:44;;;;;;;4.80;0.65;;;21.30;99.90;;;;;;5042228;28;20048;-49
2023/07/19 09:52:15;;;;;;;;;;;21.40;99.90;;;;;;5042741;28;20430;-49
2023/07/19 09:54:43;;;;;;;3.35;0.60;;;21.40;99.90;;;;;;5039749;28;19931;-53
2023/07/19 09:57:09;;;;;;;8.77;0.88;;;21.40;99.90;;;;;;5038187;28;20045;-49
2023/07/19 09:59:45;;;;;;;3.58;0.88;;;21.50;99.90;;;;;;5040539;28;20095;-50
2023/07/19 10:02:12;;;;;;;4.90;1.00;;;21.50;99.90;;;;;;5040045;28;20106;-51
2023/07/19 10:04:40;;;;;;;7.43;1.00;;;21.50;99.90;;;;;;5035565;28;20041;-54
2023/07/19 10:07:11;;;;;;;6.13;1.15;;;21.50;99.90;;;;;;5037956;28;20488;-49
2023/07/19 10:09:37;;;;;;;3.88;0.68;;;21.50;99.90;;;;;;5042338;28;20041;-53
2023/07/19 10:12:07;;;;;;;5.03;0.82;;;21.60;99.90;;;;;;5042485;28;20037;-49
2023/07/19 10:14:34;;;;;;;4.50;0.50;;;21.60;99.90;;;;;;5043016;28;20461;-50
2023/07/19 10:17:00;;;;;;;;;;;21.70;99.90;;;;;;5035681;28;20037;-48
2023/07/19 10:19:26;;;;;;;1.93;0.50;;;21.70;99.90;;;;;;5035425;28;20309;-48
2023/07/19 10:22:05;;;;;;;1.63;0.45;;;21.70;99.90;;;;;;5038016;28;20033;-49
2023/07/19 10:24:32;;;;;;;5.45;0.60;;;21.70;99.90;;;;;;5038330;28;20047;-50
2023/07/19 10:27:06;;;;;;;4.05;0.60;;;21.60;99.90;;;;;;5037828;28;20516;-51
2023/07/19 10:29:42;;;;;;;3.10;0.80;;;21.40;99.90;;;;;;5036256;28;20041;-49
2023/07/19 10:32:08;;;;;;;3.15;0.40;;;21.40;99.90;;;;;;5036011;28;20037;-51
2023/07/19 10:34:36;;;;;;;4.10;0.70;;;21.30;99.90;;;;;;5041556;28;20684;-50
2023/07/19 10:37:03;;;;;;;1.95;0.50;;;21.40;99.90;;;;;;5043735;28;20044;-51
2023/07/19 10:39:29;;;;;;;4.85;0.50;;;21.40;99.90;;;;;;5038711;28;20068;-49
2023/07/19 10:41:55;;;;;;;1.88;0.40;;;21.40;99.90;;;;;;5045616;28;20497;-47
2023/07/19 10:44:20;;;;;;;;;;;21.40;99.90;;;;;;5041405;28;20080;-53
2023/07/19 10:46:47;;;;;;;5.00;0.40;;;21.40;99.90;;;;;;5039204;28;19998;-50
2023/07/19 10:49:13;;;;;;;2.50;0.20;;;21.50;99.90;;;;;;5034723;28;20053;-48
2023/07/19 10:51:38;;;;;;;7.15;0.73;;;21.60;99.90;;;;;;5038732;28;20086;-48
2023/07/19 10:54:06;;;;;;;;;;;21.70;99.90;;;;;;5044109;28;20033;-51
2023/07/19 10:56:32;;;;;;;2.05;0.50;;;21.90;99.90;;;;;;5044563;28;20294;-49
2023/07/19 10:59:01;;;;;;;1.40;0.40;;;21.90;99.90;;;;;;5048017;28;20371;-48
2023/07/19 11:01:29;;;;;;;4.53;0.50;;;21.90;99.90;;;;;;5047931;28;20072;-48
2023/07/19 11:04:00;;;;;;;2.38;0.50;;;22.00;99.90;;;;;;5040005;28;20324;-51
2023/07/19 11:06:26;;;;;;;2.08;0.40;;;22.00;99.90;;;;;;5035469;28;20399;-51
2023/07/19 11:08:51;;;;;;;;;;;22.10;99.90;;;;;;5043995;28;20036;-52
2023/07/19 11:11:17;;;;;;;0.75;0.38;;;22.30;99.90;;;;;;5045888;28;19917;-50
2023/07/19 11:13:44;;;;;;;1.73;0.30;;;22.40;99.90;;;;;;5047686;28;20036;-49
2023/07/19 11:16:10;;;;;;;1.38;0.30;;;22.50;99.90;;;;;;5041410;28;20380;-53
2023/07/19 11:18:36;;;;;;;;;;;22.60;99.90;;;;;;5038864;28;20049;-53
2023/07/19 11:21:03;;;;;;;2.27;0.30;;;22.60;99.90;;;;;;5036257;28;20198;-55
2023/07/19 11:23:29;;;;;;;1.38;0.40;;;22.60;99.90;;;;;;5041398;28;20327;-53
2023/07/19 11:26:06;;;;;;;2.15;0.30;;;22.70;99.90;;;;;;5036833;28;20051;-50
2023/07/19 11:28:36;;;;;;;;;;;22.60;99.90;;;;;;5043431;28;20040;-54
2023/07/19 11:31:05;;;;;;;1.30;0.35;;;22.60;99.90;;;;;;5048322;28;19960;-55
2023/07/19 11:33:34;;;;;;;2.60;0.35;;;22.60;99.90;;;;;;5042582;28;20052;-53
2023/07/19 11:36:00;;;;;;;1.00;0.20;;;22.60;99.90;;;;;;5040665;28;20049;-54
2023/07/19 11:38:26;;;;;;;4.22;0.30;;;22.70;99.90;;;;;;5037942;28;20045;-49
2023/07/19 11:40:51;;;;;;;;;;;22.70;99.90;;;;;;5041740;28;20041;-50
2023/07/19 11:43:24;;;;;;;1.30;0.22;;;22.60;99.90;;;;;;5037448;28;20039;-49
2023/07/19 11:45:50;;;;;;;2.00;0.52;;;22.60;99.90;;;;;;5039051;28;20029;-52
2023/07/19 11:48:15;;;;;;;;;;;22.60;99.90;;;;;;5041096;28;20532;-49
2023/07/19 11:50:41;;;;;;;1.92;0.57;;;22.70;99.90;;;;;;5046691;28;19968;-49
2023/07/19 11:53:07;;;;;;;2.45;0.20;;;22.80;99.90;;;;;;5047786;28;20424;-48
2023/07/19 11:55:32;;;;;;;3.72;0.25;;;22.80;99.90;;;;;;5046853;28;20073;-49
2023/07/19 11:58:04;;;;;;;;;;;22.80;99.60;;;;;;5044241;28;20068;-49
2023/07/19 12:00:31;;;;;;;0.95;0.20;;;22.70;99.40;;;;;;5046105;28;19917;-50
2023/07/19 12:02:57;;;;;;;1.48;0.40;;;22.60;99.90;;;;;;5040086;28;20048;-49
2023/07/19 12:05:24;;;;;;;2.47;0.20;;;22.60;99.90;;;;;;5045567;28;20045;-49
2023/07/19 12:07:51;;;;;;;1.27;0.32;;;22.60;99.90;;;;;;5045900;28;20037;-50
2023/07/19 12:10:21;;;;;;;1.42;0.45;;;22.60;99.90;;;;;;5043366;28;20042;-49
2023/07/19 12:12:51;;;;;;;1.10;0.30;;;22.60;99.90;;;;;;5039249;28;20513;-49
2023/07/19 12:15:17;;;;;;;1.25;0.30;;;22.60;99.90;;;;;;5039811;28;20119;-49
2023/07/19 12:17:44;;;;;;;2.40;0.25;;;22.60;99.90;;;;;;5044059;28;20044;-50
2023/07/19 12:20:11;;;;;;;2.25;0.50;;;22.50;99.90;;;;;;5045017;28;20045;-49
2023/07/19 12:22:40;;;;;;;0.93;0.10;;;22.50;99.80;;;;;;5045701;28;20036;-48
2023/07/19 12:25:07;;;;;;;0.82;0.40;;;22.50;99.90;;;;;;5043951;28;20047;-47
2023/07/19 12:27:32;;;;;;;2.92;0.38;;;22.50;99.80;;;;;;5043902;28;20086;-48
2023/07/19 12:29:58;;;;;;;;;;;22.50;99.60;;;;;;5046299;28;20107;-48
2023/07/19 12:32:27;;;;;;;1.48;0.30;;;22.50;99.90;;;;;;5034546;28;19923;-48
2023/07/19 12:34:54;;;;;;;2.15;0.30;;;22.60;99.80;;;;;;5041533;28;20033;-50
2023/07/19 12:37:20;;;;;;;3.70;0.40;;;22.60;99.90;;;;;;5043755;28;20142;-49
2023/07/19 12:39:45;;;;;;;;;;;22.70;99.90;;;;;;5044586;28;20159;-49
2023/07/19 12:42:11;;;;;;;2.45;0.20;;;22.70;99.80;;;;;;5040044;28;19924;-48
2023/07/19 12:44:37;;;;;;;2.92;0.30;;;22.70;99.80;;;;;;5039548;28;20041;-49
2023/07/19 12:47:05;;;;;;;0.82;0.20;;;22.70;99.70;;;;;;5039970;28;20049;-49
2023/07/19 12:49:32;;;;;;;1.45;0.30;;;22.80;99.50;;;;;;5042029;28;20044;-52